Sapporo, Japan

3:35 AM JST on July 25, 2016 (GMT +0900)
New Chitose | | Change Station

Elev 98 ft 42.77 °N, 141.69 °E | Updated 5 minutes ago

Light Drizzle
Light Drizzle Mist
61 °F
Feels Like 61 °F
N
10
Wind Variable Wind from South

Today
High -- | Low -- °F
--% Chance of Precip.
Yesterday
High -- | Low -- °F
Precip. -- in
Pressure 30.04 in
Visibility 1.2 miles
Clouds Few 100 ft
Mostly Cloudy 200 ft
Mostly Cloudy 300 ft
Dew Point 61 °F
Humidity 100%
Rainfall 0.00 in
Snow Depth Not available.
4:18 AM 7:03 PM
Waning Gibbous, 74% visible
METAR RJCC 241830Z 17009KT 2000 -DZ BR FEW001 BKN002 BKN003 16/16 Q1017 RMK 1ST001 5ST002 7ST003 A3005
Pressure 30.04 in
Visibility 1.2 miles
Clouds Few 100 ft
Mostly Cloudy 200 ft
Mostly Cloudy 300 ft
Dew Point 61 °F
Humidity 100%
Rainfall 0.00 in
Snow Depth Not available.
4:18 AM 7:03 PM
Waning Gibbous, 74% visible
METAR RJCC 241830Z 17009KT 2000 -DZ BR FEW001 BKN002 BKN003 16/16 Q1017 RMK 1ST001 5ST002 7ST003 A3005

10-Day Weather Forecast

No radar image for this location.
×

Almanac

Astronomy

Jul. 25, 2016 Rise Set
Actual Time
Civil Twilight
Nautical Twilight
Astronomical Twilight
Moon
Length of Visible Light
Length of Day
Tomorrow will be .
, % of the Moon is Illuminated

Today's Extremes

Country Highs Country Lows

Community

WunderPhotos

Upload Photos

1,927,153 photos uploaded!

WunderBlog® & News

Nearby

Air Quality

  Air Quality AQ Index Pollutant
Not available.

Snow Depth

Station Depth Elevation

Earthquake Activity

City Distance Mag. Time & Date
Minimum magnitude displayed is 2.5.

Coastal Water Temperatures

Place Temperature

Stations

Nearby Weather Stations

Station Location Temp. Windchill Dew Point Humidity Wind Precip. Elev Updated Type